sensor_id;sensor_type;location;lat;lon;timestamp;pressure;altitude;pressure_sealevel;temperature
15680;BMP180;15488;48.114;11.532;2023-01-19T00:00:30;94104.00;;;8.60
15680;BMP180;15488;48.114;11.532;2023-01-19T00:02:58;94098.00;;;8.50
15680;BMP180;15488;48.114;11.532;2023-01-19T00:05:26;94113.00;;;8.50
15680;BMP180;15488;48.114;11.532;2023-01-19T00:07:53;94123.00;;;8.50
15680;BMP180;15488;48.114;11.532;2023-01-19T00:10:21;94115.00;;;8.50
15680;BMP180;15488;48.114;11.532;2023-01-19T00:12:48;94121.00;;;8.50
15680;BMP180;15488;48.114;11.532;2023-01-19T00:15:16;94137.00;;;8.50
15680;BMP180;15488;48.114;11.532;2023-01-19T00:17:43;94134.00;;;8.50
15680;BMP180;15488;48.114;11.532;2023-01-19T00:20:12;94134.00;;;8.50
15680;BMP180;15488;48.114;11.532;2023-01-19T00:22:40;94136.00;;;8.50
15680;BMP180;15488;48.114;11.532;2023-01-19T00:25:08;94139.00;;;8.50
15680;BMP180;15488;48.114;11.532;2023-01-19T00:27:35;94142.00;;;8.50
15680;BMP180;15488;48.114;11.532;2023-01-19T00:30:03;94147.00;;;8.50
15680;BMP180;15488;48.114;11.532;2023-01-19T00:32:31;94150.00;;;8.50
15680;BMP180;15488;48.114;11.532;2023-01-19T00:34:58;94145.00;;;8.50
15680;BMP180;15488;48.114;11.532;2023-01-19T00:37:27;94155.00;;;8.50
15680;BMP180;15488;48.114;11.532;2023-01-19T00:39:54;94155.00;;;8.50
15680;BMP180;15488;48.114;11.532;2023-01-19T00:42:22;94149.00;;;8.50
15680;BMP180;15488;48.114;11.532;2023-01-19T00:45:11;94157.00;;;8.50
15680;BMP180;15488;48.114;11.532;2023-01-19T00:47:38;94156.00;;;8.50
15680;BMP180;15488;48.114;11.532;2023-01-19T00:50:07;94158.00;;;8.60
15680;BMP180;15488;48.114;11.532;2023-01-19T00:52:38;94165.00;;;8.60
15680;BMP180;15488;48.114;11.532;2023-01-19T00:55:07;94161.00;;;8.50
15680;BMP180;15488;48.114;11.532;2023-01-19T00:57:37;94161.00;;;8.50
15680;BMP180;15488;48.114;11.532;2023-01-19T01:00:06;94168.00;;;8.50
15680;BMP180;15488;48.114;11.532;2023-01-19T01:02:36;94163.00;;;8.50
15680;BMP180;15488;48.114;11.532;2023-01-19T01:05:04;94173.00;;;8.50
15680;BMP180;15488;48.114;11.532;2023-01-19T01:07:33;94167.00;;;8.60
15680;BMP180;15488;48.114;11.532;2023-01-19T01:10:08;94171.00;;;8.60
15680;BMP180;15488;48.114;11.532;2023-01-19T01:12:36;94172.00;;;8.60
15680;BMP180;15488;48.114;11.532;2023-01-19T01:15:04;94181.00;;;8.60
15680;BMP180;15488;48.114;11.532;2023-01-19T01:17:32;94182.00;;;8.60
15680;BMP180;15488;48.114;11.532;2023-01-19T01:20:00;94173.00;;;8.50
15680;BMP180;15488;48.114;11.532;2023-01-19T01:22:30;94173.00;;;8.50
15680;BMP180;15488;48.114;11.532;2023-01-19T01:24:57;94179.00;;;8.50
15680;BMP180;15488;48.114;11.532;2023-01-19T01:27:26;94183.00;;;8.50
15680;BMP180;15488;48.114;11.532;2023-01-19T01:29:53;94179.00;;;8.50
15680;BMP180;15488;48.114;11.532;2023-01-19T01:32:21;94183.00;;;8.50
15680;BMP180;15488;48.114;11.532;2023-01-19T01:34:48;94196.00;;;8.50
15680;BMP180;15488;48.114;11.532;2023-01-19T01:37:15;94197.00;;;8.50
15680;BMP180;15488;48.114;11.532;2023-01-19T01:39:43;94208.00;;;8.50
15680;BMP180;15488;48.114;11.532;2023-01-19T01:42:16;94208.00;;;8.40
15680;BMP180;15488;48.114;11.532;2023-01-19T01:44:48;94199.00;;;8.40
15680;BMP180;15488;48.114;11.532;2023-01-19T01:47:22;94203.00;;;8.40
15680;BMP180;15488;48.114;11.532;2023-01-19T01:49:52;94205.00;;;8.40
15680;BMP180;15488;48.114;11.532;2023-01-19T01:52:25;94211.00;;;8.30
15680;BMP180;15488;48.114;11.532;2023-01-19T01:54:53;94200.00;;;8.30
15680;BMP180;15488;48.114;11.532;2023-01-19T01:57:21;94210.00;;;8.30
15680;BMP180;15488;48.114;11.532;2023-01-19T01:59:55;94213.00;;;8.30
15680;BMP180;15488;48.114;11.532;2023-01-19T02:02:24;94216.00;;;8.30
15680;BMP180;15488;48.114;11.532;2023-01-19T02:05:14;94222.00;;;8.30
15680;BMP180;15488;48.114;11.532;2023-01-19T02:07:47;94223.00;;;8.30
15680;BMP180;15488;48.114;11.532;2023-01-19T02:10:33;94216.00;;;8.30
15680;BMP180;15488;48.114;11.532;2023-01-19T02:13:18;94218.00;;;8.20
15680;BMP180;15488;48.114;11.532;2023-01-19T02:15:49;94220.00;;;8.20
15680;BMP180;15488;48.114;11.532;2023-01-19T02:18:18;94226.00;;;8.20
15680;BMP180;15488;48.114;11.532;2023-01-19T02:20:52;94144.00;;;8.00
15680;BMP180;15488;48.114;11.532;2023-01-19T02:23:32;94220.00;;;8.00
15680;BMP180;15488;48.114;11.532;2023-01-19T02:26:04;94223.00;;;8.00
15680;BMP180;15488;48.114;11.532;2023-01-19T02:28:32;94232.00;;;8.00
15680;BMP180;15488;48.114;11.532;2023-01-19T02:31:00;94227.00;;;8.00
15680;BMP180;15488;48.114;11.532;2023-01-19T02:33:27;94225.00;;;8.00
15680;BMP180;15488;48.114;11.532;2023-01-19T02:35:56;94228.00;;;8.10
15680;BMP180;15488;48.114;11.532;2023-01-19T02:38:26;94228.00;;;8.00
15680;BMP180;15488;48.114;11.532;2023-01-19T02:40:55;94239.00;;;8.00
15680;BMP180;15488;48.114;11.532;2023-01-19T02:43:24;94235.00;;;7.90
15680;BMP180;15488;48.114;11.532;2023-01-19T02:45:52;94232.00;;;7.90
15680;BMP180;15488;48.114;11.532;2023-01-19T02:48:21;94237.00;;;7.90
15680;BMP180;15488;48.114;11.532;2023-01-19T02:50:50;94230.00;;;7.90
15680;BMP180;15488;48.114;11.532;2023-01-19T02:56:37;94242.00;;;7.90
15680;BMP180;15488;48.114;11.532;2023-01-19T02:59:11;94247.00;;;7.90
15680;BMP180;15488;48.114;11.532;2023-01-19T03:01:46;94252.00;;;7.90
15680;BMP180;15488;48.114;11.532;2023-01-19T03:04:26;94242.00;;;7.90
15680;BMP180;15488;48.114;11.532;2023-01-19T03:06:59;94244.00;;;8.00
15680;BMP180;15488;48.114;11.532;2023-01-19T03:09:33;94244.00;;;7.90
15680;BMP180;15488;48.114;11.532;2023-01-19T03:12:23;94169.00;;;8.00
15680;BMP180;15488;48.114;11.532;2023-01-19T03:14:56;94244.00;;;8.00
15680;BMP180;15488;48.114;11.532;2023-01-19T03:17:27;94233.00;;;8.00
15680;BMP180;15488;48.114;11.532;2023-01-19T03:19:57;94227.00;;;8.00
15680;BMP180;15488;48.114;11.532;2023-01-19T03:22:27;94226.00;;;8.00
15680;BMP180;15488;48.114;11.532;2023-01-19T03:24:58;94222.00;;;8.00
15680;BMP180;15488;48.114;11.532;2023-01-19T03:27:29;94226.00;;;8.00
15680;BMP180;15488;48.114;11.532;2023-01-19T03:30:00;94229.00;;;8.00
15680;BMP180;15488;48.114;11.532;2023-01-19T03:32:32;94230.00;;;8.00
15680;BMP180;15488;48.114;11.532;2023-01-19T03:35:04;94239.00;;;7.90
15680;BMP180;15488;48.114;11.532;2023-01-19T03:37:37;94241.00;;;7.90
15680;BMP180;15488;48.114;11.532;2023-01-19T03:40:08;94245.00;;;7.90
15680;BMP180;15488;48.114;11.532;2023-01-19T03:42:38;94238.00;;;7.80
15680;BMP180;15488;48.114;11.532;2023-01-19T03:45:07;94250.00;;;7.80
15680;BMP180;15488;48.114;11.532;2023-01-19T03:47:35;94243.00;;;7.80
15680;BMP180;15488;48.114;11.532;2023-01-19T03:50:06;94239.00;;;7.70
15680;BMP180;15488;48.114;11.532;2023-01-19T03:52:35;94248.00;;;7.70
15680;BMP180;15488;48.114;11.532;2023-01-19T03:55:03;94238.00;;;7.70
15680;BMP180;15488;48.114;11.532;2023-01-19T03:57:31;94259.00;;;7.70
15680;BMP180;15488;48.114;11.532;2023-01-19T04:00:00;94248.00;;;7.70
15680;BMP180;15488;48.114;11.532;2023-01-19T04:02:28;94255.00;;;7.70
15680;BMP180;15488;48.114;11.532;2023-01-19T04:04:55;94260.00;;;7.70
15680;BMP180;15488;48.114;11.532;2023-01-19T04:07:22;94255.00;;;7.60
15680;BMP180;15488;48.114;11.532;2023-01-19T04:09:50;94252.00;;;7.60
15680;BMP180;15488;48.114;11.532;2023-01-19T04:12:17;94243.00;;;7.60
15680;BMP180;15488;48.114;11.532;2023-01-19T04:14:45;94255.00;;;7.60
15680;BMP180;15488;48.114;11.532;2023-01-19T04:17:13;94251.00;;;7.50
15680;BMP180;15488;48.114;11.532;2023-01-19T04:19:41;94251.00;;;7.50
15680;BMP180;15488;48.114;11.532;2023-01-19T04:22:10;94243.00;;;7.50
15680;BMP180;15488;48.114;11.532;2023-01-19T04:24:37;94253.00;;;7.40
15680;BMP180;15488;48.114;11.532;2023-01-19T04:27:05;94248.00;;;7.40
15680;BMP180;15488;48.114;11.532;2023-01-19T04:29:32;94242.00;;;7.40
15680;BMP180;15488;48.114;11.532;2023-01-19T04:31:59;94245.00;;;7.40
15680;BMP180;15488;48.114;11.532;2023-01-19T04:34:28;94245.00;;;7.30
15680;BMP180;15488;48.114;11.532;2023-01-19T04:36:56;94250.00;;;7.30
15680;BMP180;15488;48.114;11.532;2023-01-19T04:39:23;94250.00;;;7.30
15680;BMP180;15488;48.114;11.532;2023-01-19T04:41:50;94248.00;;;7.30
15680;BMP180;15488;48.114;11.532;2023-01-19T04:44:18;94250.00;;;7.30
15680;BMP180;15488;48.114;11.532;2023-01-19T04:46:45;94246.00;;;7.30
15680;BMP180;15488;48.114;11.532;2023-01-19T04:49:13;94244.00;;;7.30
15680;BMP180;15488;48.114;11.532;2023-01-19T04:51:42;94246.00;;;7.30
15680;BMP180;15488;48.114;11.532;2023-01-19T04:54:09;94249.00;;;7.30
15680;BMP180;15488;48.114;11.532;2023-01-19T04:56:36;94259.00;;;7.30
15680;BMP180;15488;48.114;11.532;2023-01-19T04:59:05;94256.00;;;7.30
15680;BMP180;15488;48.114;11.532;2023-01-19T05:01:33;94260.00;;;7.30
15680;BMP180;15488;48.114;11.532;2023-01-19T05:04:00;94263.00;;;7.30
15680;BMP180;15488;48.114;11.532;2023-01-19T05:06:30;94260.00;;;7.20
15680;BMP180;15488;48.114;11.532;2023-01-19T05:08:59;94259.00;;;7.20
15680;BMP180;15488;48.114;11.532;2023-01-19T05:11:26;94260.00;;;7.20
15680;BMP180;15488;48.114;11.532;2023-01-19T05:13:54;94263.00;;;7.20
15680;BMP180;15488;48.114;11.532;2023-01-19T05:16:21;94274.00;;;7.20
15680;BMP180;15488;48.114;11.532;2023-01-19T05:18:48;94268.00;;;6.90
15680;BMP180;15488;48.114;11.532;2023-01-19T05:21:16;94273.00;;;7.20
15680;BMP180;15488;48.114;11.532;2023-01-19T05:23:43;94274.00;;;7.20
15680;BMP180;15488;48.114;11.532;2023-01-19T05:26:12;94283.00;;;7.20
15680;BMP180;15488;48.114;11.532;2023-01-19T05:28:39;94275.00;;;7.20
15680;BMP180;15488;48.114;11.532;2023-01-19T05:31:07;94208.00;;;7.20
15680;BMP180;15488;48.114;11.532;2023-01-19T05:33:34;94282.00;;;7.20
15680;BMP180;15488;48.114;11.532;2023-01-19T05:36:02;94289.00;;;7.20
15680;BMP180;15488;48.114;11.532;2023-01-19T05:38:30;94291.00;;;7.20
15680;BMP180;15488;48.114;11.532;2023-01-19T05:40:57;94287.00;;;7.20
15680;BMP180;15488;48.114;11.532;2023-01-19T05:43:26;94290.00;;;7.20
15680;BMP180;15488;48.114;11.532;2023-01-19T05:45:54;94286.00;;;7.20
15680;BMP180;15488;48.114;11.532;2023-01-19T05:48:21;94295.00;;;7.20
15680;BMP180;15488;48.114;11.532;2023-01-19T05:50:48;94284.00;;;7.20
15680;BMP180;15488;48.114;11.532;2023-01-19T05:53:16;94299.00;;;7.20
15680;BMP180;15488;48.114;11.532;2023-01-19T05:55:43;94302.00;;;7.20
15680;BMP180;15488;48.114;11.532;2023-01-19T05:58:11;94307.00;;;7.20
15680;BMP180;15488;48.114;11.532;2023-01-19T06:00:40;94310.00;;;7.20
15680;BMP180;15488;48.114;11.532;2023-01-19T06:03:07;94307.00;;;7.20
15680;BMP180;15488;48.114;11.532;2023-01-19T06:05:35;94319.00;;;7.30
15680;BMP180;15488;48.114;11.532;2023-01-19T06:08:04;94314.00;;;7.30
15680;BMP180;15488;48.114;11.532;2023-01-19T06:10:32;94331.00;;;7.20
15680;BMP180;15488;48.114;11.532;2023-01-19T06:12:59;94327.00;;;7.30
15680;BMP180;15488;48.114;11.532;2023-01-19T06:15:27;94334.00;;;7.20
15680;BMP180;15488;48.114;11.532;2023-01-19T06:17:55;94336.00;;;7.20
15680;BMP180;15488;48.114;11.532;2023-01-19T06:20:23;94327.00;;;7.20
15680;BMP180;15488;48.114;11.532;2023-01-19T06:22:50;94334.00;;;7.20
15680;BMP180;15488;48.114;11.532;2023-01-19T06:25:18;94333.00;;;7.30
15680;BMP180;15488;48.114;11.532;2023-01-19T06:27:45;94337.00;;;7.30
15680;BMP180;15488;48.114;11.532;2023-01-19T06:30:13;94335.00;;;7.30
15680;BMP180;15488;48.114;11.532;2023-01-19T06:32:42;94341.00;;;7.30
15680;BMP180;15488;48.114;11.532;2023-01-19T06:35:11;94342.00;;;7.30
15680;BMP180;15488;48.114;11.532;2023-01-19T06:37:38;94339.00;;;7.30
15680;BMP180;15488;48.114;11.532;2023-01-19T06:40:07;94336.00;;;7.30
15680;BMP180;15488;48.114;11.532;2023-01-19T06:42:34;94348.00;;;7.30
15680;BMP180;15488;48.114;11.532;2023-01-19T06:45:02;94343.00;;;7.30
15680;BMP180;15488;48.114;11.532;2023-01-19T06:47:30;94342.00;;;7.20
15680;BMP180;15488;48.114;11.532;2023-01-19T06:49:59;94350.00;;;7.20
15680;BMP180;15488;48.114;11.532;2023-01-19T06:52:28;94350.00;;;7.20
15680;BMP180;15488;48.114;11.532;2023-01-19T06:54:56;94353.00;;;7.20
15680;BMP180;15488;48.114;11.532;2023-01-19T06:57:23;94354.00;;;7.20
15680;BMP180;15488;48.114;11.532;2023-01-19T06:59:51;94352.00;;;7.20
15680;BMP180;15488;48.114;11.532;2023-01-19T07:02:18;94353.00;;;7.20
15680;BMP180;15488;48.114;11.532;2023-01-19T07:04:48;94353.00;;;7.10
15680;BMP180;15488;48.114;11.532;2023-01-19T07:07:16;94363.00;;;7.20
15680;BMP180;15488;48.114;11.532;2023-01-19T07:09:45;94363.00;;;7.20
15680;BMP180;15488;48.114;11.532;2023-01-19T07:12:12;94365.00;;;7.20
15680;BMP180;15488;48.114;11.532;2023-01-19T07:14:39;94373.00;;;7.10
15680;BMP180;15488;48.114;11.532;2023-01-19T07:17:07;94379.00;;;7.10
15680;BMP180;15488;48.114;11.532;2023-01-19T07:19:34;94378.00;;;7.10
15680;BMP180;15488;48.114;11.532;2023-01-19T07:22:02;94378.00;;;7.00
15680;BMP180;15488;48.114;11.532;2023-01-19T07:24:29;94382.00;;;6.90
15680;BMP180;15488;48.114;11.532;2023-01-19T07:27:00;94384.00;;;6.90
15680;BMP180;15488;48.114;11.532;2023-01-19T07:29:27;94376.00;;;6.90
15680;BMP180;15488;48.114;11.532;2023-01-19T07:31:59;94381.00;;;6.90
15680;BMP180;15488;48.114;11.532;2023-01-19T07:34:29;94377.00;;;6.90
15680;BMP180;15488;48.114;11.532;2023-01-19T07:37:02;94383.00;;;6.90
15680;BMP180;15488;48.114;11.532;2023-01-19T07:39:30;94389.00;;;6.90
15680;BMP180;15488;48.114;11.532;2023-01-19T07:41:59;94388.00;;;6.90
15680;BMP180;15488;48.114;11.532;2023-01-19T07:44:26;94393.00;;;6.90
15680;BMP180;15488;48.114;11.532;2023-01-19T07:46:53;94395.00;;;6.80
15680;BMP180;15488;48.114;11.532;2023-01-19T07:49:21;94399.00;;;6.90
15680;BMP180;15488;48.114;11.532;2023-01-19T07:51:48;94402.00;;;6.90
15680;BMP180;15488;48.114;11.532;2023-01-19T07:54:16;94402.00;;;6.90
15680;BMP180;15488;48.114;11.532;2023-01-19T07:56:43;94402.00;;;6.80
15680;BMP180;15488;48.114;11.532;2023-01-19T07:59:12;94411.00;;;6.70
15680;BMP180;15488;48.114;11.532;2023-01-19T08:01:40;94405.00;;;6.80
15680;BMP180;15488;48.114;11.532;2023-01-19T08:04:07;94415.00;;;6.80
15680;BMP180;15488;48.114;11.532;2023-01-19T08:06:37;94406.00;;;6.80
15680;BMP180;15488;48.114;11.532;2023-01-19T08:09:05;94412.00;;;6.90
15680;BMP180;15488;48.114;11.532;2023-01-19T08:11:33;94408.00;;;6.90
15680;BMP180;15488;48.114;11.532;2023-01-19T08:14:01;94414.00;;;6.90
15680;BMP180;15488;48.114;11.532;2023-01-19T08:16:30;94423.00;;;6.80
15680;BMP180;15488;48.114;11.532;2023-01-19T08:18:58;94424.00;;;6.90
15680;BMP180;15488;48.114;11.532;2023-01-19T08:21:26;94423.00;;;6.80
15680;BMP180;15488;48.114;11.532;2023-01-19T08:23:54;94433.00;;;6.80
15680;BMP180;15488;48.114;11.532;2023-01-19T08:26:27;94434.00;;;6.80
15680;BMP180;15488;48.114;11.532;2023-01-19T08:28:55;94434.00;;;6.80
15680;BMP180;15488;48.114;11.532;2023-01-19T08:31:23;94439.00;;;6.80
15680;BMP180;15488;48.114;11.532;2023-01-19T08:33:52;94432.00;;;6.80
15680;BMP180;15488;48.114;11.532;2023-01-19T08:36:20;94447.00;;;6.90
15680;BMP180;15488;48.114;11.532;2023-01-19T08:38:48;94446.00;;;6.90
15680;BMP180;15488;48.114;11.532;2023-01-19T08:41:16;94443.00;;;7.00
15680;BMP180;15488;48.114;11.532;2023-01-19T08:43:44;94441.00;;;7.00
15680;BMP180;15488;48.114;11.532;2023-01-19T08:46:11;94450.00;;;7.00
15680;BMP180;15488;48.114;11.532;2023-01-19T08:48:42;94449.00;;;7.10
15680;BMP180;15488;48.114;11.532;2023-01-19T08:51:11;94450.00;;;7.10
15680;BMP180;15488;48.114;11.532;2023-01-19T08:53:40;94454.00;;;7.20
15680;BMP180;15488;48.114;11.532;2023-01-19T08:56:08;94455.00;;;7.20
15680;BMP180;15488;48.114;11.532;2023-01-19T08:58:38;94445.00;;;7.20
15680;BMP180;15488;48.114;11.532;2023-01-19T09:01:05;94444.00;;;7.20
15680;BMP180;15488;48.114;11.532;2023-01-19T09:03:33;94449.00;;;7.20
15680;BMP180;15488;48.114;11.532;2023-01-19T09:06:01;94446.00;;;7.30
15680;BMP180;15488;48.114;11.532;2023-01-19T09:08:30;94441.00;;;7.30
15680;BMP180;15488;48.114;11.532;2023-01-19T09:10:57;94449.00;;;7.40
15680;BMP180;15488;48.114;11.532;2023-01-19T09:13:25;94451.00;;;7.40
15680;BMP180;15488;48.114;11.532;2023-01-19T09:15:52;94451.00;;;7.30
15680;BMP180;15488;48.114;11.532;2023-01-19T09:18:21;94452.00;;;7.30
15680;BMP180;15488;48.114;11.532;2023-01-19T09:20:50;94455.00;;;7.30
15680;BMP180;15488;48.114;11.532;2023-01-19T09:23:18;94446.00;;;7.30
15680;BMP180;15488;48.114;11.532;2023-01-19T09:25:54;94455.00;;;7.30
15680;BMP180;15488;48.114;11.532;2023-01-19T09:28:21;94454.00;;;7.30
15680;BMP180;15488;48.114;11.532;2023-01-19T09:30:49;94460.00;;;7.30
15680;BMP180;15488;48.114;11.532;2023-01-19T09:33:17;94454.00;;;7.40
15680;BMP180;15488;48.114;11.532;2023-01-19T09:35:46;94457.00;;;7.40
15680;BMP180;15488;48.114;11.532;2023-01-19T09:38:16;94462.00;;;7.40
15680;BMP180;15488;48.114;11.532;2023-01-19T09:40:49;94458.00;;;7.40
15680;BMP180;15488;48.114;11.532;2023-01-19T09:43:25;94459.00;;;7.40
15680;BMP180;15488;48.114;11.532;2023-01-19T09:45:59;94463.00;;;7.40
15680;BMP180;15488;48.114;11.532;2023-01-19T09:48:37;94459.00;;;7.40
15680;BMP180;15488;48.114;11.532;2023-01-19T09:51:09;94462.00;;;7.50
15680;BMP180;15488;48.114;11.532;2023-01-19T09:53:49;94457.00;;;7.50
15680;BMP180;15488;48.114;11.532;2023-01-19T09:56:19;94457.00;;;7.50
15680;BMP180;15488;48.114;11.532;2023-01-19T09:58:47;94457.00;;;7.50
15680;BMP180;15488;48.114;11.532;2023-01-19T10:01:25;94458.00;;;7.60
15680;BMP180;15488;48.114;11.532;2023-01-19T10:04:25;94461.00;;;7.50
15680;BMP180;15488;48.114;11.532;2023-01-19T10:07:06;94469.00;;;7.60
15680;BMP180;15488;48.114;11.532;2023-01-19T10:09:40;94464.00;;;7.60
15680;BMP180;15488;48.114;11.532;2023-01-19T10:12:20;94464.00;;;7.70
15680;BMP180;15488;48.114;11.532;2023-01-19T10:14:56;94467.00;;;7.70
15680;BMP180;15488;48.114;11.532;2023-01-19T10:17:37;94466.00;;;7.80
15680;BMP180;15488;48.114;11.532;2023-01-19T10:20:15;94456.00;;;7.80
15680;BMP180;15488;48.114;11.532;2023-01-19T10:22:47;94463.00;;;7.90
15680;BMP180;15488;48.114;11.532;2023-01-19T10:25:18;94452.00;;;8.00
15680;BMP180;15488;48.114;11.532;2023-01-19T10:27:47;94468.00;;;8.10
15680;BMP180;15488;48.114;11.532;2023-01-19T10:30:19;94456.00;;;8.10
15680;BMP180;15488;48.114;11.532;2023-01-19T10:32:48;94449.00;;;8.20
15680;BMP180;15488;48.114;11.532;2023-01-19T10:35:18;94457.00;;;8.20
15680;BMP180;15488;48.114;11.532;2023-01-19T10:37:50;94446.00;;;8.30
15680;BMP180;15488;48.114;11.532;2023-01-19T10:40:27;94452.00;;;8.30
15680;BMP180;15488;48.114;11.532;2023-01-19T10:42:58;94456.00;;;8.40
15680;BMP180;15488;48.114;11.532;2023-01-19T10:45:28;94467.00;;;8.50
15680;BMP180;15488;48.114;11.532;2023-01-19T10:48:03;94449.00;;;8.50
15680;BMP180;15488;48.114;11.532;2023-01-19T10:50:33;94450.00;;;8.60
15680;BMP180;15488;48.114;11.532;2023-01-19T10:53:03;94445.00;;;8.70
15680;BMP180;15488;48.114;11.532;2023-01-19T10:55:34;94442.00;;;8.70
15680;BMP180;15488;48.114;11.532;2023-01-19T10:58:05;94453.00;;;8.80
15680;BMP180;15488;48.114;11.532;2023-01-19T11:00:35;94443.00;;;8.80
15680;BMP180;15488;48.114;11.532;2023-01-19T11:03:04;94449.00;;;8.90
15680;BMP180;15488;48.114;11.532;2023-01-19T11:05:32;94439.00;;;8.90
15680;BMP180;15488;48.114;11.532;2023-01-19T11:08:00;94443.00;;;9.00
15680;BMP180;15488;48.114;11.532;2023-01-19T11:10:52;94443.00;;;9.00
15680;BMP180;15488;48.114;11.532;2023-01-19T11:13:23;94441.00;;;9.10
15680;BMP180;15488;48.114;11.532;2023-01-19T11:15:53;94446.00;;;9.20
15680;BMP180;15488;48.114;11.532;2023-01-19T11:18:26;94446.00;;;9.20
15680;BMP180;15488;48.114;11.532;2023-01-19T11:20:55;94438.00;;;9.30
15680;BMP180;15488;48.114;11.532;2023-01-19T11:23:26;94440.00;;;9.40
15680;BMP180;15488;48.114;11.532;2023-01-19T11:25:56;94369.00;;;9.40
15680;BMP180;15488;48.114;11.532;2023-01-19T11:28:29;94438.00;;;9.50
15680;BMP180;15488;48.114;11.532;2023-01-19T11:30:59;94434.00;;;9.50
15680;BMP180;15488;48.114;11.532;2023-01-19T11:33:33;94434.00;;;9.50
15680;BMP180;15488;48.114;11.532;2023-01-19T11:36:03;94428.00;;;9.60
15680;BMP180;15488;48.114;11.532;2023-01-19T11:38:31;94429.00;;;9.70
15680;BMP180;15488;48.114;11.532;2023-01-19T11:40:59;94429.00;;;9.70
15680;BMP180;15488;48.114;11.532;2023-01-19T11:43:30;94424.00;;;9.70
15680;BMP180;15488;48.114;11.532;2023-01-19T11:45:58;94422.00;;;9.80
15680;BMP180;15488;48.114;11.532;2023-01-19T11:48:29;94416.00;;;9.70
15680;BMP180;15488;48.114;11.532;2023-01-19T11:51:01;94420.00;;;9.70
15680;BMP180;15488;48.114;11.532;2023-01-19T11:53:33;94415.00;;;9.80
15680;BMP180;15488;48.114;11.532;2023-01-19T11:56:02;94418.00;;;9.80
15680;BMP180;15488;48.114;11.532;2023-01-19T11:58:36;94412.00;;;9.90
15680;BMP180;15488;48.114;11.532;2023-01-19T12:01:11;94415.00;;;9.90
15680;BMP180;15488;48.114;11.532;2023-01-19T12:03:42;94406.00;;;9.90
15680;BMP180;15488;48.114;11.532;2023-01-19T12:06:13;94408.00;;;9.90
15680;BMP180;15488;48.114;11.532;2023-01-19T12:08:43;94402.00;;;10.00
15680;BMP180;15488;48.114;11.532;2023-01-19T12:11:15;94399.00;;;10.00
15680;BMP180;15488;48.114;11.532;2023-01-19T12:13:45;94402.00;;;10.00
15680;BMP180;15488;48.114;11.532;2023-01-19T12:16:18;94400.00;;;10.00
15680;BMP180;15488;48.114;11.532;2023-01-19T12:18:48;94405.00;;;10.00
15680;BMP180;15488;48.114;11.532;2023-01-19T12:21:18;94396.00;;;10.00
15680;BMP180;15488;48.114;11.532;2023-01-19T12:23:53;94390.00;;;10.10
15680;BMP180;15488;48.114;11.532;2023-01-19T12:26:27;94397.00;;;10.20
15680;BMP180;15488;48.114;11.532;2023-01-19T12:29:02;94398.00;;;10.20
15680;BMP180;15488;48.114;11.532;2023-01-19T12:31:30;94395.00;;;10.20
15680;BMP180;15488;48.114;11.532;2023-01-19T12:34:35;94390.00;;;10.20
15680;BMP180;15488;48.114;11.532;2023-01-19T12:37:06;94396.00;;;10.30
15680;BMP180;15488;48.114;11.532;2023-01-19T12:39:49;94394.00;;;10.30
15680;BMP180;15488;48.114;11.532;2023-01-19T12:42:17;94398.00;;;10.30
15680;BMP180;15488;48.114;11.532;2023-01-19T12:44:46;94390.00;;;10.30
15680;BMP180;15488;48.114;11.532;2023-01-19T12:47:19;94390.00;;;10.30
15680;BMP180;15488;48.114;11.532;2023-01-19T12:49:51;94389.00;;;10.40
15680;BMP180;15488;48.114;11.532;2023-01-19T12:52:25;94387.00;;;10.40
15680;BMP180;15488;48.114;11.532;2023-01-19T12:55:05;94389.00;;;10.40
15680;BMP180;15488;48.114;11.532;2023-01-19T12:57:47;94388.00;;;10.40
15680;BMP180;15488;48.114;11.532;2023-01-19T13:00:31;94388.00;;;10.40
15680;BMP180;15488;48.114;11.532;2023-01-19T13:03:02;94385.00;;;10.40
15680;BMP180;15488;48.114;11.532;2023-01-19T13:05:57;94384.00;;;10.40
15680;BMP180;15488;48.114;11.532;2023-01-19T13:08:26;94314.00;;;10.40
15680;BMP180;15488;48.114;11.532;2023-01-19T13:11:19;94379.00;;;10.40
15680;BMP180;15488;48.114;11.532;2023-01-19T13:19:59;94386.00;;;10.30
15680;BMP180;15488;48.114;11.532;2023-01-19T13:25:33;94387.00;;;10.30
15680;BMP180;15488;48.114;11.532;2023-01-19T13:28:05;94392.00;;;10.30
15680;BMP180;15488;48.114;11.532;2023-01-19T13:30:35;94394.00;;;10.30
15680;BMP180;15488;48.114;11.532;2023-01-19T13:33:08;94391.00;;;10.30
15680;BMP180;15488;48.114;11.532;2023-01-19T13:35:46;94392.00;;;10.20
15680;BMP180;15488;48.114;11.532;2023-01-19T13:38:23;94392.00;;;10.20
15680;BMP180;15488;48.114;11.532;2023-01-19T13:40:51;94391.00;;;10.20
15680;BMP180;15488;48.114;11.532;2023-01-19T13:43:23;94394.00;;;10.20
15680;BMP180;15488;48.114;11.532;2023-01-19T13:45:51;94383.00;;;10.20
15680;BMP180;15488;48.114;11.532;2023-01-19T13:48:22;94389.00;;;10.20
15680;BMP180;15488;48.114;11.532;2023-01-19T13:50:59;94399.00;;;10.20
15680;BMP180;15488;48.114;11.532;2023-01-19T13:53:27;94392.00;;;10.20
15680;BMP180;15488;48.114;11.532;2023-01-19T13:56:23;94390.00;;;10.10
15680;BMP180;15488;48.114;11.532;2023-01-19T13:59:05;94394.00;;;10.10
15680;BMP180;15488;48.114;11.532;2023-01-19T14:01:41;94388.00;;;10.10
15680;BMP180;15488;48.114;11.532;2023-01-19T14:04:30;94392.00;;;10.10
15680;BMP180;15488;48.114;11.532;2023-01-19T14:07:00;94391.00;;;10.00
15680;BMP180;15488;48.114;11.532;2023-01-19T14:09:28;94404.00;;;10.00
15680;BMP180;15488;48.114;11.532;2023-01-19T14:12:12;94397.00;;;9.80
15680;BMP180;15488;48.114;11.532;2023-01-19T14:14:40;94400.00;;;9.90
15680;BMP180;15488;48.114;11.532;2023-01-19T14:17:26;94401.00;;;9.80
15680;BMP180;15488;48.114;11.532;2023-01-19T14:19:56;94398.00;;;9.80
15680;BMP180;15488;48.114;11.532;2023-01-19T14:22:38;94399.00;;;9.80
15680;BMP180;15488;48.114;11.532;2023-01-19T14:25:28;94405.00;;;9.80
15680;BMP180;15488;48.114;11.532;2023-01-19T14:28:27;94408.00;;;9.70
15680;BMP180;15488;48.114;11.532;2023-01-19T14:30:57;94406.00;;;9.70
15680;BMP180;15488;48.114;11.532;2023-01-19T14:33:34;94404.00;;;9.70
15680;BMP180;15488;48.114;11.532;2023-01-19T14:36:27;94412.00;;;9.60
15680;BMP180;15488;48.114;11.532;2023-01-19T14:38:59;94407.00;;;9.60